createdAt,value
2017-09-04T00:00:28.591Z,986.90
2017-09-04T00:01:25.844Z,986.88
2017-09-04T00:02:23.085Z,986.86
2017-09-04T00:03:20.342Z,986.89
2017-09-04T00:04:17.604Z,986.83
2017-09-04T00:05:14.877Z,986.77
2017-09-04T00:06:12.167Z,986.76
2017-09-04T00:07:09.463Z,986.74
2017-09-04T00:08:06.698Z,986.78
2017-09-04T00:09:03.947Z,986.79
2017-09-04T00:10:01.220Z,986.76
2017-09-04T00:10:58.481Z,986.79
2017-09-04T00:11:55.749Z,986.76
2017-09-04T00:12:52.989Z,986.80
2017-09-04T00:13:50.242Z,986.78
2017-09-04T00:14:47.534Z,986.88
2017-09-04T00:15:44.783Z,986.78
2017-09-04T00:16:42.074Z,986.88
2017-09-04T00:17:39.446Z,986.88
2017-09-04T00:18:36.711Z,986.92
2017-09-04T00:19:33.939Z,986.91
2017-09-04T00:20:31.215Z,986.89
2017-09-04T00:21:28.478Z,986.80
2017-09-04T00:22:25.746Z,986.84
2017-09-04T00:23:23.013Z,986.80
2017-09-04T00:24:20.255Z,986.85
2017-09-04T00:25:17.510Z,986.73
2017-09-04T00:26:14.772Z,986.79
2017-09-04T00:27:12.013Z,986.81
2017-09-04T00:28:09.334Z,986.80
2017-09-04T00:29:06.563Z,986.81
2017-09-04T00:30:03.838Z,986.88
2017-09-04T00:31:01.073Z,986.85
2017-09-04T00:31:58.354Z,986.88
2017-09-04T00:32:55.569Z,986.89
2017-09-04T00:33:52.817Z,986.88
2017-09-04T00:34:50.038Z,986.86
2017-09-04T00:35:47.334Z,986.89
2017-09-04T00:36:44.570Z,986.86
2017-09-04T00:37:41.829Z,986.90
2017-09-04T00:38:39.083Z,986.90
2017-09-04T00:39:36.338Z,986.93
2017-09-04T00:40:33.594Z,986.95
2017-09-04T00:41:30.845Z,986.90
2017-09-04T00:42:28.082Z,986.97
2017-09-04T00:43:25.694Z,986.90
2017-09-04T00:44:22.918Z,986.92
2017-09-04T00:45:20.209Z,986.87
2017-09-04T00:46:17.449Z,986.85
2017-09-04T00:47:14.717Z,986.83
2017-09-04T00:48:11.954Z,986.86
2017-09-04T00:49:09.224Z,986.84
2017-09-04T00:50:06.447Z,986.82
2017-09-04T00:51:03.721Z,986.78
2017-09-04T00:52:00.945Z,986.79
2017-09-04T00:52:58.202Z,986.85
2017-09-04T00:53:55.414Z,986.80
2017-09-04T00:54:52.668Z,986.84
2017-09-04T00:55:49.918Z,986.90
2017-09-04T00:56:47.177Z,986.82
2017-09-04T00:57:44.436Z,986.82
2017-09-04T00:58:41.749Z,986.82
2017-09-04T00:59:38.982Z,986.82
2017-09-04T01:00:36.265Z,986.87
2017-09-04T01:01:33.531Z,986.88
2017-09-04T01:02:30.858Z,986.88
2017-09-04T01:03:34.091Z,986.82
2017-09-04T01:04:31.458Z,986.81
2017-09-04T01:05:28.825Z,986.76
2017-09-04T01:06:26.137Z,986.81
2017-09-04T01:07:23.501Z,986.79
2017-09-04T01:08:20.753Z,986.81
2017-09-04T01:09:17.994Z,986.77
2017-09-04T01:10:15.266Z,986.76
2017-09-04T01:11:12.522Z,986.84
2017-09-04T01:12:09.790Z,986.75
2017-09-04T01:13:07.013Z,986.76
2017-09-04T01:14:04.282Z,986.79
2017-09-04T01:15:01.539Z,986.82
2017-09-04T01:15:58.843Z,986.77
2017-09-04T01:16:56.093Z,986.78
2017-09-04T01:17:53.361Z,986.73
2017-09-04T01:18:50.593Z,986.79
2017-09-04T01:19:47.853Z,986.78
2017-09-04T01:20:45.234Z,986.74
2017-09-04T01:21:42.513Z,986.79
2017-09-04T01:22:39.761Z,986.70
2017-09-04T01:23:37.005Z,986.70
2017-09-04T01:24:34.249Z,986.65
2017-09-04T01:25:31.533Z,986.76
2017-09-04T01:26:28.964Z,986.70
2017-09-04T01:27:26.315Z,986.72
2017-09-04T01:28:23.588Z,986.72
2017-09-04T01:29:20.857Z,986.68
2017-09-04T01:30:18.127Z,986.63
2017-09-04T01:31:15.406Z,986.67
2017-09-04T01:32:12.673Z,986.69
2017-09-04T01:33:09.977Z,986.73
2017-09-04T01:34:07.228Z,986.60
2017-09-04T01:35:04.494Z,986.65
2017-09-04T01:36:01.734Z,986.65
2017-09-04T01:36:59.023Z,986.68
2017-09-04T01:37:56.245Z,986.69
2017-09-04T01:38:53.507Z,986.69
2017-09-04T01:39:50.748Z,986.68
2017-09-04T01:40:48.013Z,986.70
2017-09-04T01:41:45.274Z,986.75
2017-09-04T01:42:42.561Z,986.70
2017-09-04T01:43:39.798Z,986.72
2017-09-04T01:44:37.062Z,986.72
2017-09-04T01:45:34.691Z,986.71
2017-09-04T01:46:31.957Z,986.73
2017-09-04T01:47:29.230Z,986.78
2017-09-04T01:48:26.490Z,986.74
2017-09-04T01:49:23.709Z,986.76
2017-09-04T01:50:20.961Z,986.72
2017-09-04T01:51:18.206Z,986.73
2017-09-04T01:52:15.502Z,986.71
2017-09-04T01:53:12.726Z,986.78
2017-09-04T01:54:09.988Z,986.75
2017-09-04T01:55:07.228Z,986.83
2017-09-04T01:56:04.482Z,986.79
2017-09-04T01:57:01.711Z,986.80
2017-09-04T01:57:59.013Z,986.78
2017-09-04T01:58:56.306Z,986.79
2017-09-04T01:59:53.574Z,986.79
2017-09-04T02:00:50.814Z,986.75
2017-09-04T02:01:48.058Z,986.89
2017-09-04T02:02:45.321Z,986.86
2017-09-04T02:03:42.607Z,986.84
2017-09-04T02:04:39.837Z,986.78
2017-09-04T02:05:37.081Z,986.84
2017-09-04T02:06:34.323Z,986.83
2017-09-04T02:07:31.581Z,986.86
2017-09-04T02:08:28.821Z,986.85
2017-09-04T02:09:26.073Z,986.86
2017-09-04T02:10:23.305Z,986.82
2017-09-04T02:11:20.578Z,986.84
2017-09-04T02:12:17.858Z,986.85
2017-09-04T02:13:15.143Z,986.86
2017-09-04T02:14:12.393Z,986.87
2017-09-04T02:15:09.659Z,986.88
2017-09-04T02:16:06.882Z,986.90
2017-09-04T02:17:04.153Z,986.93
2017-09-04T02:18:01.410Z,986.94
2017-09-04T02:18:58.685Z,986.90
2017-09-04T02:19:55.934Z,986.89
2017-09-04T02:20:53.198Z,986.88
2017-09-04T02:21:50.438Z,986.88
2017-09-04T02:22:47.713Z,986.83
2017-09-04T02:23:44.973Z,986.85
2017-09-04T02:24:42.222Z,986.83
2017-09-04T02:25:39.469Z,986.84
2017-09-04T02:26:36.725Z,986.82
2017-09-04T02:27:34.021Z,986.80
2017-09-04T02:28:31.321Z,986.83
2017-09-04T02:29:28.571Z,986.79
2017-09-04T02:30:26.190Z,986.86
2017-09-04T02:31:23.434Z,986.84
2017-09-04T02:32:20.706Z,986.85
2017-09-04T02:33:17.985Z,986.83
2017-09-04T02:34:15.237Z,986.84
2017-09-04T02:35:12.476Z,986.83
2017-09-04T02:36:09.741Z,986.86
2017-09-04T02:37:06.970Z,986.78
2017-09-04T02:38:04.237Z,986.89
2017-09-04T02:39:01.590Z,986.83
2017-09-04T02:39:58.921Z,986.77
2017-09-04T02:40:56.164Z,986.80
2017-09-04T02:41:53.406Z,986.80
2017-09-04T02:42:50.622Z,986.72
2017-09-04T02:43:47.898Z,986.74
2017-09-04T02:44:45.107Z,986.71
2017-09-04T02:45:42.394Z,986.72
2017-09-04T02:46:39.618Z,986.72
2017-09-04T02:47:36.897Z,986.70
2017-09-04T02:48:34.123Z,986.69
2017-09-04T02:49:31.444Z,986.67
2017-09-04T02:50:28.680Z,986.70
2017-09-04T02:51:25.934Z,986.66
2017-09-04T02:52:23.323Z,986.68
2017-09-04T02:53:20.738Z,986.76
2017-09-04T02:54:17.985Z,986.62
2017-09-04T02:55:15.250Z,986.71
2017-09-04T02:56:12.553Z,986.73
2017-09-04T02:57:09.818Z,986.70
2017-09-04T02:58:07.072Z,986.70
2017-09-04T02:59:04.371Z,986.66
2017-09-04T03:00:01.638Z,986.66
2017-09-04T03:00:58.930Z,986.66
2017-09-04T03:01:56.190Z,986.58
2017-09-04T03:02:53.481Z,986.66
2017-09-04T03:03:50.733Z,986.60
2017-09-04T03:04:48.017Z,986.57
2017-09-04T03:05:45.293Z,986.62
2017-09-04T03:06:42.545Z,986.62
2017-09-04T03:07:39.798Z,986.55
2017-09-04T03:08:37.069Z,986.58
2017-09-04T03:09:34.352Z,986.61
2017-09-04T03:10:31.646Z,986.58
2017-09-04T03:11:28.873Z,986.54
2017-09-04T03:12:26.150Z,986.59
2017-09-04T03:13:23.377Z,986.53
2017-09-04T03:14:20.670Z,986.62
2017-09-04T03:15:17.938Z,986.57
2017-09-04T03:16:15.234Z,986.62
2017-09-04T03:17:12.498Z,986.61
2017-09-04T03:18:09.758Z,986.60
2017-09-04T03:19:06.976Z,986.57
2017-09-04T03:20:04.241Z,986.49
2017-09-04T03:21:01.466Z,986.56
2017-09-04T03:21:58.719Z,986.53
2017-09-04T03:22:55.965Z,986.60
2017-09-04T03:23:53.221Z,986.59
2017-09-04T03:24:50.470Z,986.52
2017-09-04T03:25:47.734Z,986.58
2017-09-04T03:26:44.963Z,986.56
2017-09-04T03:27:42.234Z,986.57
2017-09-04T03:28:39.453Z,986.61
2017-09-04T03:29:36.730Z,986.56
2017-09-04T03:30:33.976Z,986.59
2017-09-04T03:31:31.274Z,986.60
2017-09-04T03:32:28.521Z,986.61
2017-09-04T03:33:25.769Z,986.67
2017-09-04T03:34:23.011Z,986.60
2017-09-04T03:35:20.286Z,986.66
2017-09-04T03:36:17.515Z,986.63
2017-09-04T03:37:14.766Z,986.63
2017-09-04T03:38:12.024Z,986.68
2017-09-04T03:39:09.277Z,986.70
2017-09-04T03:40:06.557Z,986.68
2017-09-04T03:41:05.849Z,986.69
2017-09-04T03:42:03.109Z,986.67
2017-09-04T03:43:00.417Z,986.67
2017-09-04T03:44:00.155Z,986.68
2017-09-04T03:44:57.437Z,986.68
2017-09-04T03:45:54.815Z,986.72
2017-09-04T03:46:52.146Z,986.71
2017-09-04T03:47:49.498Z,986.75
2017-09-04T03:48:46.777Z,986.70
2017-09-04T03:49:44.124Z,986.66
2017-09-04T03:50:41.453Z,986.75
2017-09-04T03:51:38.770Z,986.74
2017-09-04T03:52:36.090Z,986.77
2017-09-04T03:53:33.482Z,986.84
2017-09-04T03:54:30.782Z,986.77
2017-09-04T03:55:28.174Z,986.86
2017-09-04T03:56:25.466Z,986.78
2017-09-04T03:57:22.786Z,986.88
2017-09-04T03:58:20.074Z,986.79
2017-09-04T03:59:19.385Z,986.78
2017-09-04T04:00:16.598Z,986.76
2017-09-04T04:01:13.869Z,986.76
2017-09-04T04:02:11.133Z,986.70
2017-09-04T04:03:08.398Z,986.67
2017-09-04T04:04:05.641Z,986.73
2017-09-04T04:05:02.930Z,986.74
2017-09-04T04:06:00.212Z,986.69
2017-09-04T04:06:57.493Z,986.68
2017-09-04T04:07:54.802Z,986.74
2017-09-04T04:08:52.117Z,986.83
2017-09-04T04:09:49.383Z,986.73
2017-09-04T04:10:46.686Z,986.77
2017-09-04T04:11:43.926Z,986.76
2017-09-04T04:12:41.214Z,986.78
2017-09-04T04:13:38.497Z,986.76
2017-09-04T04:14:35.758Z,986.81
2017-09-04T04:15:33.061Z,986.86
2017-09-04T04:16:30.398Z,986.84
2017-09-04T04:17:27.652Z,986.80
2017-09-04T04:18:24.943Z,986.82
2017-09-04T04:19:22.198Z,986.82
2017-09-04T04:20:19.489Z,986.91
2017-09-04T04:21:16.785Z,986.87
2017-09-04T04:22:14.162Z,986.78
2017-09-04T04:23:11.421Z,986.81
2017-09-04T04:24:08.674Z,986.72
2017-09-04T04:25:05.911Z,986.78
2017-09-04T04:26:03.279Z,986.77
2017-09-04T04:27:00.609Z,986.81
2017-09-04T04:27:57.889Z,986.77
2017-09-04T04:28:55.189Z,986.84
2017-09-04T04:29:52.485Z,986.83
2017-09-04T04:30:49.750Z,986.82
2017-09-04T04:31:47.036Z,986.88
2017-09-04T04:32:44.296Z,986.92
2017-09-04T04:33:41.602Z,986.94
2017-09-04T04:34:38.878Z,986.90
2017-09-04T04:35:36.150Z,986.91
2017-09-04T04:36:33.414Z,986.99
2017-09-04T04:37:30.740Z,986.96
2017-09-04T04:38:27.979Z,986.94
2017-09-04T04:39:25.278Z,986.94
2017-09-04T04:40:22.582Z,986.98
2017-09-04T04:41:19.926Z,986.97
2017-09-04T04:42:17.201Z,986.96
2017-09-04T04:43:14.478Z,986.96
2017-09-04T04:44:11.717Z,987.04
2017-09-04T04:45:09.015Z,986.93
2017-09-04T04:46:06.262Z,986.93
2017-09-04T04:47:03.593Z,986.96
2017-09-04T04:48:00.842Z,987.00
2017-09-04T04:48:58.136Z,986.97
2017-09-04T04:49:55.411Z,987.00
2017-09-04T04:50:52.675Z,986.89
2017-09-04T04:51:49.946Z,986.97
2017-09-04T04:52:47.267Z,986.93
2017-09-04T04:53:44.517Z,986.93
2017-09-04T04:54:41.794Z,987.00
2017-09-04T04:55:39.030Z,986.97
2017-09-04T04:56:36.326Z,986.96
2017-09-04T04:57:33.582Z,987.09
2017-09-04T04:58:30.863Z,986.95
2017-09-04T04:59:28.130Z,986.98
2017-09-04T05:00:25.415Z,986.97
2017-09-04T05:01:22.662Z,986.99
2017-09-04T05:02:19.969Z,986.96
2017-09-04T05:03:17.234Z,986.97
2017-09-04T05:04:14.514Z,986.93
2017-09-04T05:05:11.762Z,986.92
2017-09-04T05:06:09.074Z,986.92
2017-09-04T05:07:06.344Z,986.87
2017-09-04T05:08:03.687Z,986.95
2017-09-04T05:09:00.938Z,986.96
2017-09-04T05:09:58.230Z,987.00
2017-09-04T05:10:55.467Z,986.91
2017-09-04T05:11:52.770Z,986.98
2017-09-04T05:12:50.019Z,986.93
2017-09-04T05:13:47.290Z,986.99
2017-09-04T05:14:44.548Z,987.03
2017-09-04T05:15:41.820Z,987.05
2017-09-04T05:16:39.139Z,987.05
2017-09-04T05:17:36.435Z,987.02
2017-09-04T05:18:33.669Z,987.04
2017-09-04T05:19:30.942Z,987.06
2017-09-04T05:20:28.197Z,987.03
2017-09-04T05:21:25.437Z,987.06
2017-09-04T05:22:22.686Z,987.01
2017-09-04T05:23:19.965Z,987.07
2017-09-04T05:24:17.257Z,987.07
2017-09-04T05:25:14.539Z,987.02
2017-09-04T05:26:11.775Z,987.01
2017-09-04T05:27:09.059Z,987.10
2017-09-04T05:28:06.783Z,987.05
2017-09-04T05:29:04.077Z,987.06
2017-09-04T05:30:01.310Z,987.12
2017-09-04T05:30:58.560Z,987.12
2017-09-04T05:31:55.799Z,987.06
2017-09-04T05:32:53.098Z,987.10
2017-09-04T05:33:50.318Z,987.07
2017-09-04T05:34:47.624Z,987.15
2017-09-04T05:35:44.847Z,987.08
2017-09-04T05:36:42.160Z,987.03
2017-09-04T05:37:39.389Z,987.02
2017-09-04T05:38:36.674Z,987.08
2017-09-04T05:39:33.885Z,987.12
2017-09-04T05:40:31.126Z,987.15
2017-09-04T05:41:28.355Z,987.07
2017-09-04T05:42:25.604Z,987.00
2017-09-04T05:43:22.847Z,987.10
2017-09-04T05:44:20.092Z,987.07
2017-09-04T05:45:17.299Z,987.10
2017-09-04T05:46:14.529Z,987.06
2017-09-04T05:47:13.833Z,987.11
2017-09-04T05:48:11.130Z,987.11
2017-09-04T05:49:08.393Z,987.11
2017-09-04T05:50:05.589Z,987.18
2017-09-04T05:51:02.849Z,987.18
2017-09-04T05:52:00.093Z,987.18
2017-09-04T05:52:57.358Z,987.25
2017-09-04T05:53:54.581Z,987.23
2017-09-04T05:54:51.833Z,987.29
2017-09-04T05:55:49.041Z,987.29
2017-09-04T05:56:46.301Z,987.19
2017-09-04T05:57:43.525Z,987.24
2017-09-04T05:58:40.790Z,987.27
2017-09-04T05:59:38.026Z,987.29
2017-09-04T06:00:35.276Z,987.25
2017-09-04T06:01:32.510Z,987.25
2017-09-04T06:02:29.761Z,987.28
2017-09-04T06:03:27.045Z,987.25
2017-09-04T06:04:24.379Z,987.25
2017-09-04T06:05:21.622Z,987.25
2017-09-04T06:06:18.898Z,987.26
2017-09-04T06:07:16.150Z,987.33
2017-09-04T06:08:13.406Z,987.27
2017-09-04T06:09:10.653Z,987.35
2017-09-04T06:10:07.898Z,987.39
2017-09-04T06:11:05.112Z,987.37
2017-09-04T06:12:02.354Z,987.36
2017-09-04T06:12:59.561Z,987.35
2017-09-04T06:13:56.865Z,987.29
2017-09-04T06:14:54.698Z,987.35
2017-09-04T06:15:51.946Z,987.29
2017-09-04T06:16:49.160Z,987.31
2017-09-04T06:17:46.422Z,987.33
2017-09-04T06:18:43.673Z,987.29
2017-09-04T06:19:40.934Z,987.32
2017-09-04T06:20:38.221Z,987.31
2017-09-04T06:21:35.479Z,987.28
2017-09-04T06:22:32.713Z,987.34
2017-09-04T06:23:29.990Z,987.31
2017-09-04T06:24:27.233Z,987.35
2017-09-04T06:25:24.481Z,987.40
2017-09-04T06:26:21.714Z,987.35
2017-09-04T06:27:18.981Z,987.37
2017-09-04T06:28:16.242Z,987.43
2017-09-04T06:29:13.517Z,987.41
2017-09-04T06:30:10.742Z,987.41
2017-09-04T06:31:07.991Z,987.51
2017-09-04T06:32:05.206Z,987.35
2017-09-04T06:33:02.461Z,987.36
2017-09-04T06:33:59.713Z,987.38
2017-09-04T06:34:56.999Z,987.40
2017-09-04T06:35:54.226Z,987.34
2017-09-04T06:36:51.474Z,987.28
2017-09-04T06:37:48.713Z,987.34
2017-09-04T06:38:45.954Z,987.33
2017-09-04T06:39:43.202Z,987.31
2017-09-04T06:40:40.454Z,987.34
2017-09-04T06:41:37.689Z,987.32
2017-09-04T06:42:34.952Z,987.47
2017-09-04T06:43:32.206Z,987.45
2017-09-04T06:44:29.473Z,987.51
2017-09-04T06:45:26.725Z,987.43
2017-09-04T06:46:24.007Z,987.58
2017-09-04T06:47:21.233Z,987.49
2017-09-04T06:48:18.515Z,987.51
2017-09-04T06:49:15.747Z,987.56
2017-09-04T06:50:13.026Z,987.56
2017-09-04T06:51:10.245Z,987.63
2017-09-04T06:52:07.494Z,987.52
2017-09-04T06:53:04.718Z,987.54
2017-09-04T06:54:01.962Z,987.49
2017-09-04T06:54:59.194Z,987.44
2017-09-04T06:55:56.894Z,987.45
2017-09-04T06:56:54.133Z,987.43
2017-09-04T06:57:51.390Z,987.44
2017-09-04T06:58:48.618Z,987.43
2017-09-04T06:59:45.901Z,987.39
2017-09-04T07:00:43.126Z,987.48
2017-09-04T07:01:40.375Z,987.47
2017-09-04T07:02:37.628Z,987.47
2017-09-04T07:03:34.886Z,987.47
2017-09-04T07:04:32.125Z,987.42
2017-09-04T07:05:29.412Z,987.44
2017-09-04T07:06:26.634Z,987.47
2017-09-04T07:07:23.896Z,987.42
2017-09-04T07:08:21.143Z,987.43
2017-09-04T07:09:18.402Z,987.49
2017-09-04T07:10:15.671Z,987.45
2017-09-04T07:11:12.933Z,987.39
2017-09-04T07:12:10.137Z,987.49
2017-09-04T07:13:07.390Z,987.53
2017-09-04T07:14:04.638Z,987.51
2017-09-04T07:15:01.882Z,987.60
2017-09-04T07:15:59.125Z,987.53
2017-09-04T07:16:56.371Z,987.58
2017-09-04T07:17:53.734Z,987.57
2017-09-04T07:18:50.997Z,987.56
2017-09-04T07:19:48.205Z,987.56
2017-09-04T07:20:45.486Z,987.60
2017-09-04T07:21:42.725Z,987.57
2017-09-04T07:22:39.986Z,987.57
2017-09-04T07:23:37.222Z,987.64
2017-09-04T07:24:34.478Z,987.63
2017-09-04T07:25:31.731Z,987.60
2017-09-04T07:26:28.987Z,987.71
2017-09-04T07:27:26.275Z,987.66
2017-09-04T07:28:23.536Z,987.72
2017-09-04T07:29:20.782Z,987.73
2017-09-04T07:30:18.021Z,987.74
2017-09-04T07:31:15.302Z,987.84
2017-09-04T07:32:12.555Z,987.78
2017-09-04T07:33:09.793Z,987.79
2017-09-04T07:34:07.038Z,987.83
2017-09-04T07:35:04.278Z,987.81
2017-09-04T07:36:01.570Z,987.82
2017-09-04T07:36:58.802Z,987.86
2017-09-04T07:37:56.052Z,987.95
2017-09-04T07:38:53.266Z,987.89
2017-09-04T07:39:50.934Z,987.99
2017-09-04T07:40:48.175Z,988.07
2017-09-04T07:41:45.473Z,988.13
2017-09-04T07:42:42.701Z,988.15
2017-09-04T07:43:40.090Z,988.10
2017-09-04T07:44:37.313Z,988.24
2017-09-04T07:45:36.837Z,988.16
2017-09-04T07:46:34.110Z,988.23
2017-09-04T07:47:31.325Z,988.20
2017-09-04T07:48:28.609Z,988.21
2017-09-04T07:49:25.826Z,988.23
2017-09-04T07:50:23.082Z,988.21
2017-09-04T07:51:20.309Z,988.20
2017-09-04T07:52:17.575Z,988.20
2017-09-04T07:53:14.822Z,988.15
2017-09-04T07:54:12.087Z,988.20
2017-09-04T07:55:09.344Z,988.19
2017-09-04T07:56:06.629Z,988.16
2017-09-04T07:57:03.851Z,988.16
2017-09-04T07:58:01.119Z,988.12
2017-09-04T07:58:58.376Z,988.07
2017-09-04T07:59:55.630Z,988.14
2017-09-04T08:00:52.836Z,988.07
2017-09-04T08:01:50.105Z,988.02
2017-09-04T08:02:47.354Z,988.01
2017-09-04T08:03:44.603Z,988.03
2017-09-04T08:04:41.808Z,987.96
2017-09-04T08:05:39.066Z,987.94
2017-09-04T08:06:36.355Z,987.88
2017-09-04T08:07:33.598Z,987.93
2017-09-04T08:08:30.813Z,987.96
2017-09-04T08:09:28.089Z,987.95
2017-09-04T08:10:25.328Z,987.96
2017-09-04T08:11:22.578Z,987.98
2017-09-04T08:12:19.854Z,987.97
2017-09-04T08:13:17.129Z,988.00
2017-09-04T08:14:14.390Z,988.04
2017-09-04T08:15:11.705Z,988.01
2017-09-04T08:16:08.961Z,988.04
2017-09-04T08:17:06.273Z,988.04
2017-09-04T08:18:03.535Z,988.12
2017-09-04T08:19:00.803Z,988.10
2017-09-04T08:19:58.540Z,988.08
2017-09-04T08:20:56.175Z,988.08
2017-09-04T08:21:53.457Z,988.10
2017-09-04T08:22:50.863Z,988.18
2017-09-04T08:23:48.169Z,988.11
2017-09-04T08:24:45.457Z,988.09
2017-09-04T08:25:42.693Z,988.13
2017-09-04T08:26:40.970Z,988.19
2017-09-04T08:27:38.266Z,988.19
2017-09-04T08:28:35.521Z,988.22
2017-09-04T08:29:32.781Z,988.25
2017-09-04T08:30:30.038Z,988.26
2017-09-04T08:31:27.321Z,988.38
2017-09-04T08:32:24.606Z,988.37
2017-09-04T08:33:21.833Z,988.36
2017-09-04T08:34:19.078Z,988.38
2017-09-04T08:35:16.292Z,988.36
2017-09-04T08:36:13.572Z,988.41
2017-09-04T08:37:10.841Z,988.52
2017-09-04T08:38:08.114Z,988.43
2017-09-04T08:39:05.344Z,988.38
2017-09-04T08:40:02.602Z,988.46
2017-09-04T08:40:59.837Z,988.42
2017-09-04T08:41:57.094Z,988.42
2017-09-04T08:42:54.331Z,988.44
2017-09-04T08:43:51.585Z,988.45
2017-09-04T08:44:50.881Z,988.45
2017-09-04T08:45:48.141Z,988.42
2017-09-04T08:46:45.380Z,988.57
2017-09-04T08:47:42.647Z,988.53
2017-09-04T08:48:39.966Z,988.60
2017-09-04T08:49:37.266Z,988.57
2017-09-04T08:50:36.586Z,988.56
2017-09-04T08:51:33.877Z,988.59
2017-09-04T08:52:31.153Z,988.53
2017-09-04T08:53:28.455Z,988.48
2017-09-04T08:54:25.741Z,988.49
2017-09-04T08:55:23.174Z,988.35
2017-09-04T08:56:20.466Z,988.41
2017-09-04T08:57:17.731Z,988.42
2017-09-04T08:58:15.083Z,988.40
2017-09-04T08:59:12.323Z,988.46
2017-09-04T09:00:09.567Z,988.49
2017-09-04T09:01:06.819Z,988.43
2017-09-04T09:02:04.062Z,988.54
2017-09-04T09:03:01.346Z,988.41
2017-09-04T09:03:58.642Z,988.42
2017-09-04T09:04:55.935Z,988.42
2017-09-04T09:05:53.192Z,988.41
2017-09-04T09:06:50.484Z,988.27
2017-09-04T09:07:48.120Z,988.30
2017-09-04T09:08:46.567Z,988.22
2017-09-04T09:09:44.099Z,988.24
2017-09-04T09:10:41.341Z,988.21
2017-09-04T09:11:38.939Z,988.19
2017-09-04T09:12:36.453Z,988.20
2017-09-04T09:13:33.725Z,988.25
2017-09-04T09:14:30.954Z,988.22
2017-09-04T09:15:28.221Z,988.24
2017-09-04T09:16:25.450Z,988.19
2017-09-04T09:17:22.712Z,988.17
2017-09-04T09:18:19.961Z,988.15
2017-09-04T09:19:17.221Z,988.08
2017-09-04T09:20:14.545Z,988.16
2017-09-04T09:21:11.878Z,988.19
2017-09-04T09:22:09.103Z,988.15
2017-09-04T09:23:06.410Z,988.15
2017-09-04T09:24:05.749Z,988.13
2017-09-04T09:25:02.969Z,988.19
2017-09-04T09:26:02.278Z,988.18
2017-09-04T09:27:01.594Z,988.10
2017-09-04T09:27:58.889Z,988.09
2017-09-04T09:28:56.231Z,988.12
2017-09-04T09:29:53.565Z,988.15
2017-09-04T09:30:50.861Z,988.20
2017-09-04T09:31:48.133Z,988.17
2017-09-04T09:32:45.439Z,988.16
2017-09-04T09:33:42.734Z,988.26
2017-09-04T09:34:39.954Z,988.17
2017-09-04T09:35:37.217Z,988.24
2017-09-04T09:36:34.478Z,988.22
2017-09-04T09:37:31.725Z,988.17
2017-09-04T09:38:28.975Z,988.17
2017-09-04T09:39:26.250Z,988.09
2017-09-04T09:40:23.481Z,988.15
2017-09-04T09:41:20.748Z,988.14
2017-09-04T09:42:17.971Z,988.16
2017-09-04T09:43:15.233Z,988.18
2017-09-04T09:44:12.486Z,988.20
2017-09-04T09:45:09.747Z,988.10
2017-09-04T09:46:06.966Z,988.12
2017-09-04T09:47:04.221Z,988.12
2017-09-04T09:48:01.477Z,988.10
2017-09-04T09:48:58.762Z,988.12
2017-09-04T09:50:00.638Z,988.21
2017-09-04T09:50:59.938Z,988.23
2017-09-04T09:51:59.226Z,988.18
2017-09-04T09:52:56.552Z,988.23
2017-09-04T09:53:53.910Z,988.22
2017-09-04T09:54:51.234Z,988.16
2017-09-04T09:55:48.531Z,988.14
2017-09-04T09:56:45.922Z,988.11
2017-09-04T09:57:43.245Z,988.12
2017-09-04T09:58:40.641Z,988.14
2017-09-04T09:59:37.954Z,988.15
2017-09-04T10:00:35.334Z,988.14
2017-09-04T10:01:34.752Z,988.25
2017-09-04T10:02:32.083Z,988.18
2017-09-04T10:03:29.400Z,988.24
2017-09-04T10:04:26.861Z,988.21
2017-09-04T10:05:24.217Z,988.24
2017-09-04T10:06:21.513Z,988.22
2017-09-04T10:07:18.838Z,988.27
2017-09-04T10:08:16.167Z,988.32
2017-09-04T10:09:13.513Z,988.25
2017-09-04T10:10:13.110Z,988.31
2017-09-04T10:11:10.410Z,988.37
2017-09-04T10:12:07.774Z,988.35
2017-09-04T10:13:05.083Z,988.39
2017-09-04T10:14:02.451Z,988.35
2017-09-04T10:15:00.110Z,988.36
2017-09-04T10:15:57.421Z,988.44
2017-09-04T10:16:54.717Z,988.53
2017-09-04T10:17:52.113Z,988.46
2017-09-04T10:18:49.416Z,988.43
2017-09-04T10:19:46.746Z,988.44
2017-09-04T10:20:44.044Z,988.50
2017-09-04T10:21:41.373Z,988.45
2017-09-04T10:22:38.686Z,988.39
2017-09-04T10:23:35.998Z,988.40
2017-09-04T10:24:33.362Z,988.50
2017-09-04T10:25:30.698Z,988.43
2017-09-04T10:26:28.004Z,988.41
2017-09-04T10:27:25.329Z,988.42
2017-09-04T10:28:22.658Z,988.45
2017-09-04T10:29:19.985Z,988.46
2017-09-04T10:30:17.291Z,988.49
2017-09-04T10:31:14.606Z,988.47
2017-09-04T10:32:11.934Z,988.46
2017-09-04T10:33:09.245Z,988.52
2017-09-04T10:34:06.605Z,988.38
2017-09-04T10:35:03.961Z,988.48
2017-09-04T10:36:01.342Z,988.53
2017-09-04T10:36:58.694Z,988.49
2017-09-04T10:37:56.026Z,988.50
2017-09-04T10:38:53.358Z,988.52
2017-09-04T10:39:50.674Z,988.46
2017-09-04T10:40:48.023Z,988.41
2017-09-04T10:41:45.350Z,988.47
2017-09-04T10:42:42.704Z,988.40
2017-09-04T10:43:40.007Z,988.44
2017-09-04T10:44:37.348Z,988.38
2017-09-04T10:45:34.714Z,988.37
2017-09-04T10:46:32.067Z,988.42
2017-09-04T10:47:29.391Z,988.48
2017-09-04T10:48:26.795Z,988.38
2017-09-04T10:49:24.149Z,988.54
2017-09-04T10:50:21.595Z,988.53
2017-09-04T10:51:18.918Z,988.53
2017-09-04T10:52:16.306Z,988.54
2017-09-04T10:53:13.722Z,988.47
2017-09-04T10:54:11.077Z,988.52
2017-09-04T10:55:08.414Z,988.44
2017-09-04T10:56:05.705Z,988.51
2017-09-04T10:57:02.971Z,988.57
2017-09-04T10:58:00.259Z,988.51
2017-09-04T10:58:57.506Z,988.47
2017-09-04T10:59:54.858Z,988.44
2017-09-04T11:00:52.142Z,988.40
2017-09-04T11:01:49.447Z,988.47
2017-09-04T11:02:46.698Z,988.42
2017-09-04T11:03:43.965Z,988.46
2017-09-04T11:04:41.206Z,988.46
2017-09-04T11:05:38.531Z,988.44
2017-09-04T11:06:35.765Z,988.48
2017-09-04T11:07:33.194Z,988.47
2017-09-04T11:08:30.465Z,988.52
2017-09-04T11:09:27.731Z,988.47
2017-09-04T11:10:24.966Z,988.46
2017-09-04T11:11:24.302Z,988.45
2017-09-04T11:12:21.641Z,988.46
2017-09-04T11:13:18.942Z,988.43
2017-09-04T11:14:16.309Z,988.31
2017-09-04T11:15:13.645Z,988.39
2017-09-04T11:16:10.949Z,988.35
2017-09-04T11:17:08.267Z,988.30
2017-09-04T11:18:05.679Z,988.38
2017-09-04T11:19:03.079Z,988.39
2017-09-04T11:20:00.477Z,988.32
2017-09-04T11:20:57.892Z,988.45
2017-09-04T11:21:55.382Z,988.35
2017-09-04T11:22:52.735Z,988.46
2017-09-04T11:23:50.085Z,988.42
2017-09-04T11:24:47.473Z,988.47
2017-09-04T11:25:44.866Z,988.40
2017-09-04T11:26:42.238Z,988.48
2017-09-04T11:27:41.589Z,988.44
2017-09-04T11:28:38.935Z,988.52
2017-09-04T11:29:36.214Z,988.45
2017-09-04T11:30:33.612Z,988.53
2017-09-04T11:31:30.973Z,988.48
2017-09-04T11:32:28.337Z,988.42
2017-09-04T11:33:25.613Z,988.35
2017-09-04T11:34:22.992Z,988.47
2017-09-04T11:35:20.306Z,988.39
2017-09-04T11:36:17.627Z,988.38
2017-09-04T11:37:14.964Z,988.36
2017-09-04T11:38:12.374Z,988.38
2017-09-04T11:39:09.734Z,988.45
2017-09-04T11:40:07.122Z,988.44
2017-09-04T11:41:04.390Z,988.55
2017-09-04T11:42:01.764Z,988.50
2017-09-04T11:42:59.019Z,988.57
2017-09-04T11:43:56.340Z,988.56
2017-09-04T11:44:53.586Z,988.64
2017-09-04T11:45:50.903Z,988.56
2017-09-04T11:46:48.191Z,988.56
2017-09-04T11:47:45.555Z,988.60
2017-09-04T11:48:42.901Z,988.54
2017-09-04T11:49:40.315Z,988.56
2017-09-04T11:50:37.595Z,988.54
2017-09-04T11:51:34.947Z,988.51
2017-09-04T11:52:32.324Z,988.53
2017-09-04T11:53:29.768Z,988.61
2017-09-04T11:54:27.116Z,988.47
2017-09-04T11:55:24.436Z,988.58